This is the latest recevied weather packets stored in our database for station/object NW6UP. If no packets are shown the sender has not sent any weather packets the latest 10 day(s).
| Time | Temp. | Humidity | Pressure | Rain* | Wind** | Luminosity | Snow |
|---|---|---|---|---|---|---|---|
| 1777946665 | 17.22° C | 52% | 0 hPa | 0 mm | - | - | - |
| 1777945466 | 17.78° C | 52% | 0 hPa | 0 mm | - | - | - |
| 1777944266 | 18.89° C | 51% | 0 hPa | 0 mm | - | - | - |
| 1777943066 | 18.89° C | 51% | 0 hPa | 0 mm | - | - | - |
| 1777941866 | 18.89° C | 52% | 0 hPa | 0 mm | - | - | - |
| 1777940667 | 18.89° C | 54% | 1013.9 hPa | 0 mm | - | - | - |
| 1777939465 | 18.89° C | 53% | 0 hPa | 0 mm | - | - | - |
| 1777938265 | 19.44° C | 51% | 0 hPa | 0 mm | - | - | - |
| 1777937067 | 20° C | 49% | 1013.7 hPa | 0 mm | - | - | - |
| 1777935867 | 20° C | 49% | 1013.6 hPa | 0 mm | - | - | - |
| 1777934667 | 20.56° C | 48% | 0 hPa | 0 mm | - | - | - |
| 1777933465 | 20° C | 50% | 0 hPa | 0 mm | - | - | - |
| 1777932266 | 20.56° C | 46% | 1014.3 hPa | 0 mm | - | - | - |
| 1777931066 | 20° C | 48% | 1014.3 hPa | 0 mm | - | - | - |
| 1777929866 | 20° C | 48% | 1014.4 hPa | 0 mm | - | - | - |
| 1777928665 | 21.11° C | 45% | 0 hPa | 0 mm | - | - | - |
| 1777927465 | 20° C | 48% | 1014.4 hPa | 0 mm | - | - | - |
| 1777926266 | 20° C | 48% | 1014.4 hPa | 0 mm | - | - | - |
| 1777925066 | 21.11° C | 46% | 0 hPa | 0 mm | - | - | - |
| 1777923867 | 20.56° C | 47% | 1014.7 hPa | 0 mm | - | - | - |
| 1777921467 | 21.67° C | 43% | 0 hPa | 0 mm | - | - | - |
| 1777920266 | 20° C | 46% | 1014.4 hPa | 0 mm | - | - | - |
| 1777919066 | 20.56° C | 45% | 0 hPa | 0 mm | - | - | - |
| 1777917865 | 20.56° C | 45% | 0 hPa | 0 mm | - | - | - |
| 1777916666 | 22.78° C | 41% | 0 hPa | 0 mm | - | - | - |
* Rain latest hour (hover to see other rain measurements)
** Current wind speed in m/s (hover to see current wind gust speed)